Airfield :
LOGIN :

Register | Disclaimer

   EN    FR    IT 

 










Legend :    VFR   Marginal VFR   IFR   Intensive IFR   Very Intensive IFR
Visi :
Ceiling :
>= 8 km
>= 3000ft
5 to 8 km
1000 to 3000 ft
1500m to 5 km
500 to 1000 ft
800 to 1500m
200 to 500 ft
< 800m
< 200 ft
Symbols :   Thunderstorms  Fog  Heavy snow  Heavy precipitations  Wind > 20 kt
SIGMETs :     Misc.  Thunderstorms  Icing  Turbulence  Mountain Waves  Volcanic Ashes







- Airport Elevation : 1213 ft
- IATA code : SCQ


LEST - Santiago de Compostela

CURRENT METAR :
  • 290700Z 27005KT 230V320 9999 -SHRA FEW016 SCT038TCU BKN045 11/10 Q1015 TEMPO 3000 SHRA

EXPIRED METARs :
  • 290630Z 26007KT 210V300 9999 -SHRA FEW011 SCT035TCU BKN040 12/11 Q1015 TEMPO 3000 SHRA
  • 290600Z 27005KT 220V310 9999 SCT013 SCT045 11/10 Q1015 TEMPO 4000 RA
  • 290530Z 26004KT 210V310 9999 FEW020 SCT045 11/10 Q1015 TEMPO 4000 RA
  • 290500Z VRB02KT 9999 FEW015 SCT040 11/10 Q1015 TEMPO 4000 RA
  • 290430Z 27004KT 230V310 9999 FEW028 11/10 Q1015 TEMPO 4000 RA

TAF TAF LEST
Valid from the 29 at 06:00 until the 30 at 06:00 UTC


290500Z 2906/3006 26009KT 9999 SCT025 BKN040 TX18/2914Z TN10/2906Z
PROB40
TEMPO 2906/2920 29015G28KT 3000 RA SHRA BKN010 SCT030TCU
TEMPO 3000/3006 3000 RA BKN005
TEMPO 3000/3006 0350 DZ FG BKN001
No reported NOTAMs for that airfield.



MET'MAP, your aeronautical weather chart ! - Copyright ORBIFLY December 2007 - Disclaimer

ORBIFLY MET'MAP TEAM :

Programming & Development : Alexandra Zaïnal
Concept & Development : Baudouin d'Aumeries
Co-Development & Prog : Marc-Olivier Méhu
Technical & hardware support : Manuel Goepfert

Contact : metmap@orbifly.com




SOURCES & CREDITS :

   NOAA